Taurus — 2CPB4 — position and weather

sailwx.info

Track history (hours):
 
Tides and Currents Weather Stations Pressure Air Temp Water Temp Dewpoint Dewpoint Depression Visibility Wind Speed Wind Dir Waves Ship Positions

Taurus

Last reported at 2017-Feb-10 00:23 UTC. Time now 2017-Feb-25 00:46 UTC.
Position N 02°05' E 102°06'.
Warning: this ship's position is 15 days out of date.

Length 292 m; draft 8.3 m.

Type: Cargo ship. MMSI: 235074621.

Date/timePositionNaut miles runAvg speedWind from/ knotsBaromVisibWave heightAir tempDewpointWater temp
2017-Feb-10 00:23N 02°05' E 102°06'17 8.7
2017-Feb-09 22:29N 01°55' E 102°19'9 9.2
2017-Feb-09 21:33N 01°51' E 102°27'1010.1
2017-Feb-09 20:33N 01°47' E 102°36'73 9.9
2017-Feb-09 13:09N 01°11' E 103°40'9 8.7
2017-Feb-09 12:10N 01°11' E 103°48'711.3
2017-Feb-09 11:34N 01°13' E 103°54'8 8.2
2017-Feb-09 10:33N 01°17' E 104°02'0 0.3
2017-Feb-09 09:28N 01°17' E 104°02'0 0.1
2017-Feb-09 08:28N 01°17' E 104°02'0 0.0
2017-Feb-09 06:19N 01°17' E 104°02'0 0.0
2017-Feb-09 05:28N 01°17' E 104°02'0 0.0
2017-Feb-09 04:31N 01°17' E 104°02'0 0.1
2017-Feb-09 03:13N 01°17' E 104°02'0 0.2
2017-Feb-09 02:16N 01°17' E 104°01'0 0.0
2017-Feb-09 00:31N 01°17' E 104°01'0 0.0
2017-Feb-08 23:28N 01°17' E 104°01'0 0.0
2017-Feb-08 22:28N 01°17' E 104°01'0 0.0
2017-Feb-08 21:31N 01°17' E 104°01'0 0.0
2017-Feb-08 20:28N 01°17' E 104°01'0 0.0
2017-Feb-08 19:28N 01°17' E 104°01'0 0.0
2017-Feb-08 18:31N 01°17' E 104°01'0 0.0
2017-Feb-08 17:25N 01°17' E 104°01'0 0.0
2017-Feb-08 16:28N 01°17' E 104°01'0 0.0
2017-Feb-08 15:31N 01°17' E 104°01'0 0.0
2017-Feb-08 14:31N 01°17' E 104°01'0 0.0
2017-Feb-08 13:19N 01°17' E 104°01'0 0.1
2017-Feb-08 12:10N 01°17' E 104°01'0 0.2
2017-Feb-08 10:31N 01°17' E 104°02'0 0.1
2017-Feb-08 09:19N 01°17' E 104°02'0 0.1
2017-Feb-08 08:19N 01°17' E 104°02'0 0.0
2017-Feb-08 07:25N 01°17' E 104°02'0 0.3
2017-Feb-08 06:33N 01°17' E 104°02'4 4.2
2017-Feb-08 05:33N 01°16' E 103°58'3 2.9
2017-Feb-08 04:33N 01°16' E 104°01'  
Track history (hours):
 
Tides and Currents Weather Stations Pressure Air Temp Water Temp Dewpoint Dewpoint Depression Visibility Wind Speed Wind Dir Waves Ship Positions

Taurus

Last reported at 2017-Feb-10 00:23 UTC. Time now 2017-Feb-25 00:46 UTC.
Position N 02°05' E 102°06'.
Warning: this ship's position is 15 days out of date.

Length 292 m; draft 8.3 m.

Type: Cargo ship. MMSI: 235074621.

Date/timePositionNaut miles runAvg speedWind from/ knotsBaromVisibWave heightAir tempDewpointWater temp
2017-Feb-10 00:23N 02°05' E 102°06'17 8.7
2017-Feb-09 22:29N 01°55' E 102°19'9 9.2
2017-Feb-09 21:33N 01°51' E 102°27'1010.1
2017-Feb-09 20:33N 01°47' E 102°36'73 9.9
2017-Feb-09 13:09N 01°11' E 103°40'9 8.7
2017-Feb-09 12:10N 01°11' E 103°48'711.3
2017-Feb-09 11:34N 01°13' E 103°54'8 8.2
2017-Feb-09 10:33N 01°17' E 104°02'0 0.3
2017-Feb-09 09:28N 01°17' E 104°02'0 0.1
2017-Feb-09 08:28N 01°17' E 104°02'0 0.0
2017-Feb-09 06:19N 01°17' E 104°02'0 0.0
2017-Feb-09 05:28N 01°17' E 104°02'0 0.0
2017-Feb-09 04:31N 01°17' E 104°02'0 0.1
2017-Feb-09 03:13N 01°17' E 104°02'0 0.2
2017-Feb-09 02:16N 01°17' E 104°01'0 0.0
2017-Feb-09 00:31N 01°17' E 104°01'0 0.0
2017-Feb-08 23:28N 01°17' E 104°01'0 0.0
2017-Feb-08 22:28N 01°17' E 104°01'0 0.0
2017-Feb-08 21:31N 01°17' E 104°01'0 0.0
2017-Feb-08 20:28N 01°17' E 104°01'0 0.0
2017-Feb-08 19:28N 01°17' E 104°01'0 0.0
2017-Feb-08 18:31N 01°17' E 104°01'0 0.0
2017-Feb-08 17:25N 01°17' E 104°01'0 0.0
2017-Feb-08 16:28N 01°17' E 104°01'0 0.0
2017-Feb-08 15:31N 01°17' E 104°01'0 0.0
2017-Feb-08 14:31N 01°17' E 104°01'0 0.0
2017-Feb-08 13:19N 01°17' E 104°01'0 0.1
2017-Feb-08 12:10N 01°17' E 104°01'0 0.2
2017-Feb-08 10:31N 01°17' E 104°02'0 0.1
2017-Feb-08 09:19N 01°17' E 104°02'0 0.1
2017-Feb-08 08:19N 01°17' E 104°02'0 0.0
2017-Feb-08 07:25N 01°17' E 104°02'0 0.3
2017-Feb-08 06:33N 01°17' E 104°02'4 4.2
2017-Feb-08 05:33N 01°16' E 103°58'3 2.9
2017-Feb-08 04:33N 01°16' E 104°01'  

Dump ship's entire track history